Aidamar — ICSJ — position and weather

sailwx.info

Track history (hours):
 
Tides and Currents Weather Stations Pressure Air Temp Water Temp Dewpoint Dewpoint Depression Visibility Wind Speed Wind Dir Waves Ship Positions

Aidamar

Last reported at 2016-Dec-03 02:05 UTC. Time now 2016-Dec-07 16:21 UTC.
Position N 09°28' W 079°54'.

Length 253 m; draft 7.3 m.

Type: Passenger vessel. MMSI: 247312900.

Date/timePositionNaut miles runAvg speedWind from/ knotsBaromVisibWave heightAir tempDewpointWater temp
2016-Dec-03 02:05N 09°28' W 079°54'610.7
2016-Dec-03 01:33N 09°22' W 079°54'0 0.4
2016-Dec-03 00:33N 09°22' W 079°54'0 0.0
2016-Dec-02 23:33N 09°22' W 079°54'0 0.0
2016-Dec-02 22:32N 09°22' W 079°54'0 0.0
2016-Dec-02 21:17N 09°22' W 079°54'0 0.0
2016-Dec-02 20:29N 09°22' W 079°54'0 0.0
2016-Dec-02 18:23N 09°22' W 079°54'0 0.0
2016-Dec-02 17:26N 09°22' W 079°54'0 0.0
2016-Dec-02 16:17N 09°22' W 079°54'0 0.0
2016-Dec-02 15:29N 09°22' W 079°54'0 0.0
2016-Dec-02 14:29N 09°22' W 079°54'2 1.8
2016-Dec-02 13:33N 09°23' W 079°54'  
2016-Nov-28 18:22N 17°46' W 066°48'1214.3
2016-Nov-28 17:33N 17°46' W 066°35'1211.7
2016-Nov-28 16:33N 17°45' W 066°23'1010.0
2016-Nov-28 15:33N 17°38' W 066°16'22715.0
2016-Nov-28 00:26N 17°02' W 062°21'1315.3
2016-Nov-27 23:34N 17°07' W 062°08'1414.1
2016-Nov-27 22:34N 17°08' W 061°53'2 2.1
2016-Nov-27 21:31N 17°07' W 061°51'0 0.0
2016-Nov-27 20:31N 17°07' W 061°51'0 0.0
2016-Nov-27 19:31N 17°07' W 061°51'0 0.0
2016-Nov-27 18:31N 17°07' W 061°51'0 0.0
2016-Nov-27 17:31N 17°07' W 061°51'0 0.0
2016-Nov-27 16:31N 17°07' W 061°51'0 0.0
2016-Nov-27 15:31N 17°07' W 061°51'0 0.0
2016-Nov-27 14:31N 17°07' W 061°51'0 0.0
2016-Nov-27 13:31N 17°07' W 061°51'0 0.0
2016-Nov-27 12:31N 17°07' W 061°51'0 0.0
2016-Nov-27 11:33N 17°07' W 061°51'6 6.0
2016-Nov-27 10:33N 17°10' W 061°56'1413.6
2016-Nov-27 09:33N 17°18' W 062°08'7 6.8
2016-Nov-27 08:33N 17°23' W 062°13'7 6.7
2016-Nov-27 07:33N 17°27' W 062°19'7 6.7
2016-Nov-27 06:33N 17°31' W 062°25'7 6.5
2016-Nov-27 05:33N 17°35' W 062°30'29 6.4
2016-Nov-27 01:04N 17°52' W 062°54'3 6.1
2016-Nov-27 00:32N 17°54' W 062°57'6 5.8
2016-Nov-26 23:32N 17°58' W 063°01'3 0.3
2016-Nov-26 12:27N 18°01' W 063°03'4 4.8
2016-Nov-26 11:32N 18°00' W 063°08'1514.9
2016-Nov-26 10:32N 18°04' W 063°23'1110.8
2016-Nov-26 09:33N 18°06' W 063°34'6 5.6
2016-Nov-26 08:31N 18°08' W 063°40'52 5.8
2016-Nov-25 23:32N 18°22' W 064°32'1 0.1
2016-Nov-25 12:32N 18°23' W 064°33'1715.5
2016-Nov-25 11:25N 18°12' W 064°47'  
Track history (hours):
 
Tides and Currents Weather Stations Pressure Air Temp Water Temp Dewpoint Dewpoint Depression Visibility Wind Speed Wind Dir Waves Ship Positions

Aidamar

Last reported at 2016-Dec-03 02:05 UTC. Time now 2016-Dec-07 16:21 UTC.
Position N 09°28' W 079°54'.

Length 253 m; draft 7.3 m.

Type: Passenger vessel. MMSI: 247312900.

Date/timePositionNaut miles runAvg speedWind from/ knotsBaromVisibWave heightAir tempDewpointWater temp
2016-Dec-03 02:05N 09°28' W 079°54'610.7
2016-Dec-03 01:33N 09°22' W 079°54'0 0.4
2016-Dec-03 00:33N 09°22' W 079°54'0 0.0
2016-Dec-02 23:33N 09°22' W 079°54'0 0.0
2016-Dec-02 22:32N 09°22' W 079°54'0 0.0
2016-Dec-02 21:17N 09°22' W 079°54'0 0.0
2016-Dec-02 20:29N 09°22' W 079°54'0 0.0
2016-Dec-02 18:23N 09°22' W 079°54'0 0.0
2016-Dec-02 17:26N 09°22' W 079°54'0 0.0
2016-Dec-02 16:17N 09°22' W 079°54'0 0.0
2016-Dec-02 15:29N 09°22' W 079°54'0 0.0
2016-Dec-02 14:29N 09°22' W 079°54'2 1.8
2016-Dec-02 13:33N 09°23' W 079°54'  
2016-Nov-28 18:22N 17°46' W 066°48'1214.3
2016-Nov-28 17:33N 17°46' W 066°35'1211.7
2016-Nov-28 16:33N 17°45' W 066°23'1010.0
2016-Nov-28 15:33N 17°38' W 066°16'22715.0
2016-Nov-28 00:26N 17°02' W 062°21'1315.3
2016-Nov-27 23:34N 17°07' W 062°08'1414.1
2016-Nov-27 22:34N 17°08' W 061°53'2 2.1
2016-Nov-27 21:31N 17°07' W 061°51'0 0.0
2016-Nov-27 20:31N 17°07' W 061°51'0 0.0
2016-Nov-27 19:31N 17°07' W 061°51'0 0.0
2016-Nov-27 18:31N 17°07' W 061°51'0 0.0
2016-Nov-27 17:31N 17°07' W 061°51'0 0.0
2016-Nov-27 16:31N 17°07' W 061°51'0 0.0
2016-Nov-27 15:31N 17°07' W 061°51'0 0.0
2016-Nov-27 14:31N 17°07' W 061°51'0 0.0
2016-Nov-27 13:31N 17°07' W 061°51'0 0.0
2016-Nov-27 12:31N 17°07' W 061°51'0 0.0
2016-Nov-27 11:33N 17°07' W 061°51'6 6.0
2016-Nov-27 10:33N 17°10' W 061°56'1413.6
2016-Nov-27 09:33N 17°18' W 062°08'7 6.8
2016-Nov-27 08:33N 17°23' W 062°13'7 6.7
2016-Nov-27 07:33N 17°27' W 062°19'7 6.7
2016-Nov-27 06:33N 17°31' W 062°25'7 6.5
2016-Nov-27 05:33N 17°35' W 062°30'29 6.4
2016-Nov-27 01:04N 17°52' W 062°54'3 6.1
2016-Nov-27 00:32N 17°54' W 062°57'6 5.8
2016-Nov-26 23:32N 17°58' W 063°01'3 0.3
2016-Nov-26 12:27N 18°01' W 063°03'4 4.8
2016-Nov-26 11:32N 18°00' W 063°08'1514.9
2016-Nov-26 10:32N 18°04' W 063°23'1110.8
2016-Nov-26 09:33N 18°06' W 063°34'6 5.6
2016-Nov-26 08:31N 18°08' W 063°40'52 5.8
2016-Nov-25 23:32N 18°22' W 064°32'1 0.1
2016-Nov-25 12:32N 18°23' W 064°33'1715.5
2016-Nov-25 11:25N 18°12' W 064°47'  

Dump ship's entire track history